Time;durP1;ratioP1;P1;durP2;ratioP2;P2;SDS_P1;SDS_P2;PMS_P1;PMS_P2;Temp;Humidity;BMP_temperature;BMP_pressure;BME280_temperature;BME280_humidity;BME280_pressure;Samples;Min_cycle;Max_cycle;Signal;HPM_P1;HPM_P2
2024/04/17 00:00:15;;;;;;;;;;;;;;;;;;6782295;26;19924;-61
2024/04/17 00:03:23;;;;;;;;;;;;;;;;;;6782217;26;20878;-61
2024/04/17 00:06:26;;;;;;;;;;;;;;;;;;6782518;26;19924;-62
2024/04/17 00:09:32;;;;;;;;;;;;;;;;;;6783318;26;19931;-61
2024/04/17 00:12:34;;;;;;;;;;;;;;;;;;6827144;26;20112;-61
2024/04/17 00:15:39;;;;;;;;;;;;;;;;;;6826946;26;19931;-61
2024/04/17 00:18:45;;;;;;;;;;;;;;;;;;6827095;26;19923;-60
2024/04/17 00:21:50;;;;;;;;;;;;;;;;;;6827526;26;19924;-60
2024/04/17 00:24:55;;;;;;;;;;;;;;;;;;6795644;26;20286;-61
2024/04/17 00:28:00;;;;;;;;;;;;;;;;;;6781136;26;19924;-61
2024/04/17 00:31:03;;;;;;;;;;;;;;;;;;6780730;26;19992;-60
2024/04/17 00:34:11;;;;;;;;;;;;;;;;;;6781718;26;19925;-61
2024/04/17 00:37:14;;;;;;;;;;;;;;;;;;6782563;26;19932;-61
2024/04/17 00:40:19;;;;;;;;;;;;;;;;;;6781454;26;19924;-61
2024/04/17 00:43:22;;;;;;;;;;;;;;;;;;6780872;26;20133;-60
2024/04/17 00:46:30;;;;;;;;;;;;;;;;;;6764821;26;19925;-60
2024/04/17 00:49:38;;;;;;;;;;;;;;;;;;6781422;26;20138;-60
2024/04/17 00:52:40;;;;;;;;;;;;;;;;;;6781801;26;19924;-60
2024/04/17 00:55:46;;;;;;;;;;;;;;;;;;6780758;26;19924;-60
2024/04/17 00:58:49;;;;;;;;;;;;;;;;;;6781435;26;20129;-60
2024/04/17 01:01:55;;;;;;;;;;;;;;;;;;6780782;26;20129;-61
2024/04/17 01:05:05;;;;;;;;;;;;;;;;;;6781075;26;20141;-61
2024/04/17 01:08:10;;;;;;;;;;;;;;;;;;6780953;26;20189;-61
2024/04/17 01:11:13;;;;;;;;;;;;;;;;;;6808857;26;19924;-61
2024/04/17 01:14:18;;;;;;;;;;;;;;;;;;6825660;26;19924;-60
2024/04/17 01:17:20;;;;;;;;;;;;;;;;;;6843451;26;19931;-60
2024/04/17 01:20:28;;;;;;;;;;;;;;;;;;6825253;26;19931;-60
2024/04/17 01:23:31;;;;;;;;;;;;;;;;;;6815110;26;20372;-60
2024/04/17 01:26:39;;;;;;;;;;;;;;;;;;6778714;26;19924;-60
2024/04/17 01:29:42;;;;;;;;;;;;;;;;;;6780318;26;20004;-60
2024/04/17 01:32:47;;;;;;;;;;;;;;;;;;6779859;26;19925;-60
2024/04/17 01:35:49;;;;;;;;;;;;;;;;;;6779897;26;19924;-60
2024/04/17 01:38:55;;;;;;;;;;;;;;;;;;6780353;26;19924;-60
2024/04/17 01:42:00;;;;;;;;;;;;;;;;;;6783655;26;19925;-60
2024/04/17 01:45:05;;;;;;;;;;;;;;;;;;6780749;26;19928;-60
2024/04/17 01:48:08;;;;;;;;;;;;;;;;;;6783926;26;19931;-60
2024/04/17 01:51:13;;;;;;;;;;;;;;;;;;6784474;26;20099;-60
2024/04/17 01:54:16;;;;;;;;;;;;;;;;;;6784127;26;20025;-60
2024/04/17 01:57:23;;;;;;;;;;;;;;;;;;6784150;26;19924;-60
2024/04/17 02:00:26;;;;;;;;;;;;;;;;;;6783587;26;19931;-60
2024/04/17 02:03:31;;;;;;;;;;;;;;;;;;6783282;26;19925;-60
2024/04/17 02:06:34;;;;;;;;;;;;;;;;;;6783533;26;20130;-60
2024/04/17 02:09:39;;;;;;;;;;;;;;;;;;6786152;26;19928;-60
2024/04/17 02:12:44;;;;;;;;;;;;;;;;;;6827160;26;19924;-59
2024/04/17 02:15:49;;;;;;;;;;;;;;;;;;6827364;26;19936;-60
2024/04/17 02:18:52;;;;;;;;;;;;;;;;;;6809651;26;19924;-60
2024/04/17 02:21:57;;;;;;;;;;;;;;;;;;6829982;26;19965;-60
2024/04/17 02:25:03;;;;;;;;;;;;;;;;;;6795097;26;19932;-60
2024/04/17 02:28:11;;;;;;;;;;;;;;;;;;6782778;26;20491;-60
2024/04/17 02:31:13;;;;;;;;;;;;;;;;;;6771684;26;19924;-61
2024/04/17 02:34:18;;;;;;;;;;;;;;;;;;6783389;26;19925;-61
2024/04/17 02:37:21;;;;;;;;;;;;;;;;;;6783818;26;19929;-60
2024/04/17 02:40:26;;;;;;;;;;;;;;;;;;6782151;26;19947;-60
2024/04/17 02:43:31;;;;;;;;;;;;;;;;;;6783180;26;19932;-60
2024/04/17 02:46:36;;;;;;;;;;;;;;;;;;6783878;26;19935;-60
2024/04/17 02:49:42;;;;;;;;;;;;;;;;;;6783309;26;19932;-60
2024/04/17 02:52:45;;;;;;;;;;;;;;;;;;6782599;26;20301;-60
2024/04/17 02:55:50;;;;;;;;;;;;;;;;;;6783042;26;19925;-60
2024/04/17 02:58:55;;;;;;;;;;;;;;;;;;6782767;26;19925;-60
2024/04/17 03:02:00;;;;;;;;;;;;;;;;;;6790202;26;19982;-61
2024/04/17 03:05:06;;;;;;;;;;;;;;;;;;6810004;26;20102;-61
2024/04/17 03:08:09;;;;;;;;;;;;;;;;;;6785969;26;19932;-61
2024/04/17 03:11:14;;;;;;;;;;;;;;;;;;6806486;26;20039;-61
2024/04/17 03:14:22;;;;;;;;;;;;;;;;;;6827336;26;19924;-61
2024/04/17 03:17:25;;;;;;;;;;;;;;;;;;6828100;26;20028;-61
2024/04/17 03:20:30;;;;;;;;;;;;;;;;;;6792784;26;19932;-61
2024/04/17 03:23:33;;;;;;;;;;;;;;;;;;6792620;26;19924;-61
2024/04/17 03:26:38;;;;;;;;;;;;;;;;;;6828415;26;19924;-61
2024/04/17 03:29:43;;;;;;;;;;;;;;;;;;6826513;26;19932;-61
2024/04/17 03:32:48;;;;;;;;;;;;;;;;;;6828234;26;19931;-61
2024/04/17 03:35:55;;;;;;;;;;;;;;;;;;6817200;26;19959;-61
2024/04/17 03:39:00;;;;;;;;;;;;;;;;;;6782160;26;20117;-61
2024/04/17 03:42:05;;;;;;;;;;;;;;;;;;6782602;26;19925;-62
2024/04/17 03:45:13;;;;;;;;;;;;;;;;;;6782518;26;20329;-61
2024/04/17 03:48:19;;;;;;;;;;;;;;;;;;6782312;26;20255;-60
2024/04/17 03:51:24;;;;;;;;;;;;;;;;;;6779446;26;20133;-61
2024/04/17 03:54:27;;;;;;;;;;;;;;;;;;6782014;26;19932;-61
2024/04/17 03:57:32;;;;;;;;;;;;;;;;;;6782347;26;19924;-61
2024/04/17 04:00:40;;;;;;;;;;;;;;;;;;6782097;26;19924;-60
2024/04/17 04:03:43;;;;;;;;;;;;;;;;;;6781624;26;20347;-60
2024/04/17 04:06:48;;;;;;;;;;;;;;;;;;6782203;26;20026;-60
2024/04/17 04:09:51;;;;;;;;;;;;;;;;;;6788779;26;19924;-61
2024/04/17 04:12:58;;;;;;;;;;;;;;;;;;6814379;26;19950;-60
2024/04/17 04:16:06;;;;;;;;;;;;;;;;;;6827690;26;19924;-60
2024/04/17 04:19:08;;;;;;;;;;;;;;;;;;6826801;26;20129;-60
2024/04/17 04:22:13;;;;;;;;;;;;;;;;;;6827625;26;20029;-60
2024/04/17 04:25:16;;;;;;;;;;;;;;;;;;6789391;26;19925;-60
2024/04/17 04:28:21;;;;;;;;;;;;;;;;;;6781886;26;19931;-60
2024/04/17 04:31:27;;;;;;;;;;;;;;;;;;6780367;26;19935;-60
2024/04/17 04:34:32;;;;;;;;;;;;;;;;;;6781179;26;21025;-60
2024/04/17 04:37:34;;;;;;;;;;;;;;;;;;6767225;26;19924;-61
2024/04/17 04:40:40;;;;;;;;;;;;;;;;;;6781454;26;19925;-61
2024/04/17 04:43:42;;;;;;;;;;;;;;;;;;6781412;26;19932;-61
2024/04/17 04:46:51;;;;;;;;;;;;;;;;;;6770186;26;19929;-61
2024/04/17 04:49:54;;;;;;;;;;;;;;;;;;6781148;26;19925;-60
2024/04/17 04:52:59;;;;;;;;;;;;;;;;;;6781654;26;19959;-61
2024/04/17 04:56:05;;;;;;;;;;;;;;;;;;6781715;26;20207;-61
2024/04/17 04:59:07;;;;;;;;;;;;;;;;;;6780987;26;20102;-62
2024/04/17 05:02:16;;;;;;;;;;;;;;;;;;6781938;26;19931;-61
2024/04/17 05:05:18;;;;;;;;;;;;;;;;;;6781345;26;19946;-61
2024/04/17 05:08:24;;;;;;;;;;;;;;;;;;6781683;26;19925;-61
2024/04/17 05:11:29;;;;;;;;;;;;;;;;;;6812345;26;19934;-63
2024/04/17 05:14:34;;;;;;;;;;;;;;;;;;6825886;26;19924;-61
2024/04/17 05:17:39;;;;;;;;;;;;;;;;;;6814580;26;19950;-61
2024/04/17 05:20:45;;;;;;;;;;;;;;;;;;6826115;26;20024;-61
2024/04/17 05:23:47;;;;;;;;;;;;;;;;;;6811053;26;19931;-61
2024/04/17 05:26:53;;;;;;;;;;;;;;;;;;6781538;26;19924;-60
2024/04/17 05:29:58;;;;;;;;;;;;;;;;;;6780417;26;19932;-60
2024/04/17 05:33:06;;;;;;;;;;;;;;;;;;6781066;26;20302;-60
2024/04/17 05:36:11;;;;;;;;;;;;;;;;;;6781202;26;19924;-61
2024/04/17 05:39:14;;;;;;;;;;;;;;;;;;6780338;26;20419;-61
2024/04/17 05:42:19;;;;;;;;;;;;;;;;;;6781244;26;19925;-61
2024/04/17 05:45:24;;;;;;;;;;;;;;;;;;6780003;26;20004;-61
2024/04/17 05:48:29;;;;;;;;;;;;;;;;;;6780061;26;20126;-60
2024/04/17 05:51:35;;;;;;;;;;;;;;;;;;6779795;26;19924;-61
2024/04/17 05:54:37;;;;;;;;;;;;;;;;;;6779737;26;19924;-61
2024/04/17 05:57:42;;;;;;;;;;;;;;;;;;6780207;26;19959;-61
2024/04/17 06:00:45;;;;;;;;;;;;;;;;;;6779501;26;20021;-60
2024/04/17 06:03:53;;;;;;;;;;;;;;;;;;6778892;26;19931;-61
2024/04/17 06:06:55;;;;;;;;;;;;;;;;;;6778615;26;19939;-61
2024/04/17 06:10:01;;;;;;;;;;;;;;;;;;6788388;26;20116;-61
2024/04/17 06:13:04;;;;;;;;;;;;;;;;;;6823740;26;19959;-61
2024/04/17 06:16:09;;;;;;;;;;;;;;;;;;6825003;26;19925;-61
2024/04/17 06:19:14;;;;;;;;;;;;;;;;;;6807380;26;19924;-61
2024/04/17 06:22:19;;;;;;;;;;;;;;;;;;6778469;26;20010;-62
2024/04/17 06:25:22;;;;;;;;;;;;;;;;;;6741066;26;20281;-60
2024/04/17 06:28:28;;;;;;;;;;;;;;;;;;6737929;26;20274;-60
2024/04/17 06:31:30;;;;;;;;;;;;;;;;;;6739185;26;19932;-60
2024/04/17 06:34:38;;;;;;;;;;;;;;;;;;6738417;26;19925;-60
2024/04/17 06:37:44;;;;;;;;;;;;;;;;;;6739136;26;20241;-60
2024/04/17 06:40:46;;;;;;;;;;;;;;;;;;6738244;26;19925;-60
2024/04/17 06:43:52;;;;;;;;;;;;;;;;;;6738432;26;19925;-60
2024/04/17 06:46:54;;;;;;;;;;;;;;;;;;6738838;26;20253;-60
2024/04/17 06:50:02;;;;;;;;;;;;;;;;;;6738655;26;19929;-60
2024/04/17 06:53:05;;;;;;;;;;;;;;;;;;6738938;26;19932;-61
2024/04/17 06:56:11;;;;;;;;;;;;;;;;;;6739071;26;19932;-61
2024/04/17 06:59:13;;;;;;;;;;;;;;;;;;6738014;26;19932;-60
2024/04/17 07:02:19;;;;;;;;;;;;;;;;;;6738752;26;19925;-60
2024/04/17 07:05:25;;;;;;;;;;;;;;;;;;6738601;26;19925;-60
2024/04/17 07:08:30;;;;;;;;;;;;;;;;;;6738068;26;20169;-60
2024/04/17 07:11:33;;;;;;;;;;;;;;;;;;6738048;26;19925;-60
2024/04/17 07:14:38;;;;;;;;;;;;;;;;;;6744788;26;19932;-61
2024/04/17 07:17:44;;;;;;;;;;;;;;;;;;6738424;26;19925;-61
2024/04/17 07:20:52;;;;;;;;;;;;;;;;;;6738124;26;20775;-60
2024/04/17 07:23:57;;;;;;;;;;;;;;;;;;6754035;26;19924;-61
2024/04/17 07:27:02;;;;;;;;;;;;;;;;;;6783020;26;20251;-60
2024/04/17 07:30:09;;;;;;;;;;;;;;;;;;6782826;26;20379;-61
2024/04/17 07:33:12;;;;;;;;;;;;;;;;;;6782605;26;20011;-62
2024/04/17 07:36:20;;;;;;;;;;;;;;;;;;6783327;26;19924;-62
2024/04/17 07:39:22;;;;;;;;;;;;;;;;;;6781878;26;19931;-61
2024/04/17 07:42:28;;;;;;;;;;;;;;;;;;6783251;26;19924;-62
2024/04/17 07:45:33;;;;;;;;;;;;;;;;;;6782402;26;20122;-60
2024/04/17 07:48:38;;;;;;;;;;;;;;;;;;6782779;26;20496;-61
2024/04/17 07:51:44;;;;;;;;;;;;;;;;;;6783251;26;19980;-61
2024/04/17 07:54:49;;;;;;;;;;;;;;;;;;6782469;26;19924;-60
2024/04/17 07:57:52;;;;;;;;;;;;;;;;;;6781924;26;19924;-60
2024/04/17 08:00:57;;;;;;;;;;;;;;;;;;6783049;26;20124;-60
2024/04/17 08:04:00;;;;;;;;;;;;;;;;;;6781574;26;19929;-60
2024/04/17 08:07:08;;;;;;;;;;;;;;;;;;6782447;26;19932;-60
2024/04/17 08:10:11;;;;;;;;;;;;;;;;;;6776560;26;19931;-62
2024/04/17 08:13:16;;;;;;;;;;;;;;;;;;6781465;26;19936;-61
2024/04/17 08:16:19;;;;;;;;;;;;;;;;;;6781097;26;20392;-61
2024/04/17 08:19:24;;;;;;;;;;;;;;;;;;6782160;26;19931;-60
2024/04/17 08:22:29;;;;;;;;;;;;;;;;;;6782722;26;19924;-61
2024/04/17 08:25:35;;;;;;;;;;;;;;;;;;6782102;26;19944;-60
2024/04/17 08:28:40;;;;;;;;;;;;;;;;;;6826432;26;20276;-60
2024/04/17 08:31:43;;;;;;;;;;;;;;;;;;6826753;26;19924;-61
2024/04/17 08:34:50;;;;;;;;;;;;;;;;;;6826348;26;19924;-60
2024/04/17 08:37:59;;;;;;;;;;;;;;;;;;6826327;26;20392;-62
2024/04/17 08:41:02;;;;;;;;;;;;;;;;;;6826553;26;19924;-60
2024/04/17 08:44:07;;;;;;;;;;;;;;;;;;6826473;26;19924;-60
2024/04/17 08:47:12;;;;;;;;;;;;;;;;;;6827688;26;19931;-62
2024/04/17 08:50:15;;;;;;;;;;;;;;;;;;6824876;26;19931;-61
2024/04/17 08:53:23;;;;;;;;;;;;;;;;;;6825566;26;19931;-61
2024/04/17 08:56:25;;;;;;;;;;;;;;;;;;6826155;26;19931;-61
2024/04/17 08:59:31;;;;;;;;;;;;;;;;;;6825537;26;20171;-61
2024/04/17 09:02:33;;;;;;;;;;;;;;;;;;6826332;26;19931;-61
2024/04/17 09:05:39;;;;;;;;;;;;;;;;;;6826375;26;20000;-61
2024/04/17 09:08:44;;;;;;;;;;;;;;;;;;6825678;26;20025;-61
2024/04/17 09:11:49;;;;;;;;;;;;;;;;;;6801849;26;19931;-61
2024/04/17 09:14:57;;;;;;;;;;;;;;;;;;6779182;26;19932;-61
2024/04/17 09:17:59;;;;;;;;;;;;;;;;;;6780497;26;19924;-61
2024/04/17 09:21:05;;;;;;;;;;;;;;;;;;6750762;26;20030;-60
2024/04/17 09:24:11;;;;;;;;;;;;;;;;;;6760314;26;19925;-62
2024/04/17 09:27:16;;;;;;;;;;;;;;;;;;6736941;26;20083;-62
2024/04/17 09:30:19;;;;;;;;;;;;;;;;;;6705409;26;20007;-61
2024/04/17 09:33:24;;;;;;;;;;;;;;;;;;6735768;26;19932;-61
2024/04/17 09:36:27;;;;;;;;;;;;;;;;;;6736136;26;19925;-59
2024/04/17 09:39:35;;;;;;;;;;;;;;;;;;6736026;26;20264;-61
2024/04/17 09:42:38;;;;;;;;;;;;;;;;;;6727899;26;20203;-61
2024/04/17 09:45:43;;;;;;;;;;;;;;;;;;6706170;26;19925;-60
2024/04/17 09:48:49;;;;;;;;;;;;;;;;;;6703617;26;19925;-61
2024/04/17 09:51:56;;;;;;;;;;;;;;;;;;6704635;26;19936;-60
2024/04/17 09:55:04;;;;;;;;;;;;;;;;;;6691403;26;19938;-60
2024/04/17 09:58:06;;;;;;;;;;;;;;;;;;6708342;26;19925;-61
2024/04/17 10:01:11;;;;;;;;;;;;;;;;;;6692090;26;20125;-62
2024/04/17 10:04:17;;;;;;;;;;;;;;;;;;6738856;26;19925;-61
2024/04/17 10:07:24;;;;;;;;;;;;;;;;;;6695829;26;20068;-60
2024/04/17 10:10:32;;;;;;;;;;;;;;;;;;6752559;26;20546;-62
2024/04/17 10:13:35;;;;;;;;;;;;;;;;;;6829128;26;19924;-61
2024/04/17 10:16:40;;;;;;;;;;;;;;;;;;6829679;26;19924;-60
2024/04/17 10:19:48;;;;;;;;;;;;;;;;;;6828796;26;20121;-60
2024/04/17 10:22:54;;;;;;;;;;;;;;;;;;6828434;26;20021;-61
2024/04/17 10:25:59;;;;;;;;;;;;;;;;;;6784362;26;20137;-60
2024/04/17 10:29:04;;;;;;;;;;;;;;;;;;6784168;26;20126;-60
2024/04/17 10:32:12;;;;;;;;;;;;;;;;;;6830307;26;19935;-61
2024/04/17 10:35:16;;;;;;;;;;;;;;;;;;6828938;26;19924;-61
2024/04/17 10:38:24;;;;;;;;;;;;;;;;;;6828813;26;19928;-60
2024/04/17 10:41:41;;;;;;;;;;;;;;;;;;6828946;26;20213;-61
2024/04/17 10:44:44;;;;;;;;;;;;;;;;;;6828366;26;19931;-61
2024/04/17 10:47:52;;;;;;;;;;;;;;;;;;6788208;26;19930;-61
2024/04/17 10:50:54;;;;;;;;;;;;;;;;;;6783585;26;20114;-61
2024/04/17 10:54:00;;;;;;;;;;;;;;;;;;6782365;26;19955;-61
2024/04/17 10:57:05;;;;;;;;;;;;;;;;;;6828968;26;19930;-61
2024/04/17 11:00:11;;;;;;;;;;;;;;;;;;6827856;26;19924;-61
2024/04/17 11:03:16;;;;;;;;;;;;;;;;;;6827912;26;20167;-61
2024/04/17 11:06:19;;;;;;;;;;;;;;;;;;6829393;26;20120;-61
2024/04/17 11:09:25;;;;;;;;;;;;;;;;;;6797223;26;19928;-61
2024/04/17 11:12:30;;;;;;;;;;;;;;;;;;6742867;26;20021;-60
2024/04/17 11:15:35;;;;;;;;;;;;;;;;;;6781008;26;20018;-60
2024/04/17 11:18:38;;;;;;;;;;;;;;;;;;6749766;26;19925;-60
2024/04/17 11:21:46;;;;;;;;;;;;;;;;;;6751815;26;20110;-60
2024/04/17 11:24:57;;;;;;;;;;;;;;;;;;6812812;26;19932;-61
2024/04/17 11:28:05;;;;;;;;;;;;;;;;;;6827902;26;19947;-61
2024/04/17 11:31:09;;;;;;;;;;;;;;;;;;6828252;26;19931;-60
2024/04/17 11:34:21;;;;;;;;;;;;;;;;;;6827787;26;19924;-60
2024/04/17 11:37:24;;;;;;;;;;;;;;;;;;6827966;26;19923;-61
2024/04/17 11:40:29;;;;;;;;;;;;;;;;;;6827537;26;19924;-60
2024/04/17 11:43:34;;;;;;;;;;;;;;;;;;6827280;26;20016;-58
2024/04/17 11:46:40;;;;;;;;;;;;;;;;;;6828036;26;19924;-61
2024/04/17 11:49:43;;;;;;;;;;;;;;;;;;6827562;26;19928;-59
2024/04/17 11:52:49;;;;;;;;;;;;;;;;;;6828075;26;20019;-61
2024/04/17 11:55:54;;;;;;;;;;;;;;;;;;6827882;26;19931;-61
2024/04/17 11:58:59;;;;;;;;;;;;;;;;;;6827675;26;19931;-60
2024/04/17 12:02:05;;;;;;;;;;;;;;;;;;6766419;26;19950;-61
2024/04/17 12:05:10;;;;;;;;;;;;;;;;;;6796499;26;19931;-60
2024/04/17 12:08:13;;;;;;;;;;;;;;;;;;6797673;26;19924;-60
2024/04/17 12:11:18;;;;;;;;;;;;;;;;;;6785405;26;19925;-61
2024/04/17 12:14:27;;;;;;;;;;;;;;;;;;6761742;26;19929;-60
2024/04/17 12:17:32;;;;;;;;;;;;;;;;;;6781486;26;19924;-60
2024/04/17 12:20:35;;;;;;;;;;;;;;;;;;6780978;26;19924;-60
2024/04/17 12:23:42;;;;;;;;;;;;;;;;;;6792758;26;19924;-60
2024/04/17 12:26:51;;;;;;;;;;;;;;;;;;6826814;26;19935;-60
2024/04/17 12:29:59;;;;;;;;;;;;;;;;;;6824047;26;20109;-60
2024/04/17 12:33:04;;;;;;;;;;;;;;;;;;6826942;26;19924;-61
2024/04/17 12:36:10;;;;;;;;;;;;;;;;;;6826841;26;20125;-61
2024/04/17 12:39:15;;;;;;;;;;;;;;;;;;6826416;26;20121;-60
2024/04/17 12:42:22;;;;;;;;;;;;;;;;;;6795345;26;19931;-61
2024/04/17 12:45:30;;;;;;;;;;;;;;;;;;6825917;26;19924;-59
2024/04/17 12:48:35;;;;;;;;;;;;;;;;;;6825028;26;19924;-60
2024/04/17 12:51:40;;;;;;;;;;;;;;;;;;6826618;26;19931;-60
2024/04/17 12:54:45;;;;;;;;;;;;;;;;;;6817277;26;19924;-61
2024/04/17 12:57:51;;;;;;;;;;;;;;;;;;6735918;26;20267;-60
2024/04/17 13:00:59;;;;;;;;;;;;;;;;;;6780295;26;19924;-60
2024/04/17 13:04:01;;;;;;;;;;;;;;;;;;6780222;26;20037;-60
2024/04/17 13:07:07;;;;;;;;;;;;;;;;;;6780793;26;19928;-60
2024/04/17 13:10:09;;;;;;;;;;;;;;;;;;6791709;26;19931;-60
2024/04/17 13:13:15;;;;;;;;;;;;;;;;;;6825639;26;19924;-60
2024/04/17 13:16:20;;;;;;;;;;;;;;;;;;6825843;26;19924;-61
2024/04/17 13:19:25;;;;;;;;;;;;;;;;;;6825866;26;20006;-60
2024/04/17 13:22:30;;;;;;;;;;;;;;;;;;6825726;26;19954;-59
2024/04/17 13:25:33;;;;;;;;;;;;;;;;;;6784109;26;20260;-61
2024/04/17 13:28:38;;;;;;;;;;;;;;;;;;6779397;26;19932;-60
2024/04/17 13:31:45;;;;;;;;;;;;;;;;;;6780552;26;20514;-60
2024/04/17 13:34:51;;;;;;;;;;;;;;;;;;6779306;26;20126;-60
2024/04/17 13:37:53;;;;;;;;;;;;;;;;;;6778476;26;19924;-59
2024/04/17 13:41:01;;;;;;;;;;;;;;;;;;6780100;26;19925;-61
2024/04/17 13:44:03;;;;;;;;;;;;;;;;;;6779106;26;20000;-62
2024/04/17 13:47:11;;;;;;;;;;;;;;;;;;6779489;26;19928;-60
2024/04/17 13:50:14;;;;;;;;;;;;;;;;;;6778983;26;19925;-60
2024/04/17 13:53:19;;;;;;;;;;;;;;;;;;6779025;26;19925;-60
2024/04/17 13:56:26;;;;;;;;;;;;;;;;;;6779598;26;19924;-60
2024/04/17 13:59:29;;;;;;;;;;;;;;;;;;6779164;26;19932;-60
2024/04/17 14:02:37;;;;;;;;;;;;;;;;;;6747094;26;19925;-60
2024/04/17 14:05:39;;;;;;;;;;;;;;;;;;6778925;26;20015;-60
2024/04/17 14:08:45;;;;;;;;;;;;;;;;;;6779090;26;19925;-61
2024/04/17 14:11:50;;;;;;;;;;;;;;;;;;6815454;26;19931;-63
2024/04/17 14:14:52;;;;;;;;;;;;;;;;;;6824218;26;19924;-59
2024/04/17 14:18:00;;;;;;;;;;;;;;;;;;6823874;26;19924;-61
2024/04/17 14:21:08;;;;;;;;;;;;;;;;;;6824607;26;19931;-60
2024/04/17 14:24:10;;;;;;;;;;;;;;;;;;6803605;26;20133;-60
2024/04/17 14:27:16;;;;;;;;;;;;;;;;;;6779891;26;19928;-60
2024/04/17 14:30:21;;;;;;;;;;;;;;;;;;6779523;26;19931;-61
2024/04/17 14:33:30;;;;;;;;;;;;;;;;;;6779347;26;19931;-61
2024/04/17 14:36:35;;;;;;;;;;;;;;;;;;6779580;26;19929;-60
2024/04/17 14:39:41;;;;;;;;;;;;;;;;;;6778839;26;20011;-60
2024/04/17 14:42:43;;;;;;;;;;;;;;;;;;6779239;26;20112;-61
2024/04/17 14:45:54;;;;;;;;;;;;;;;;;;6778559;26;19924;-60
2024/04/17 14:49:02;;;;;;;;;;;;;;;;;;6780518;26;19925;-60
2024/04/17 14:52:04;;;;;;;;;;;;;;;;;;6783608;26;19931;-60
2024/04/17 14:55:12;;;;;;;;;;;;;;;;;;6782979;26;19935;-61
2024/04/17 14:58:15;;;;;;;;;;;;;;;;;;6782931;26;19925;-61
2024/04/17 15:01:20;;;;;;;;;;;;;;;;;;6752306;26;19924;-62
2024/04/17 15:04:25;;;;;;;;;;;;;;;;;;6783221;26;19931;-61
2024/04/17 15:07:31;;;;;;;;;;;;;;;;;;6784511;26;19924;-61
2024/04/17 15:10:35;;;;;;;;;;;;;;;;;;6801162;26;19943;-60
2024/04/17 15:13:41;;;;;;;;;;;;;;;;;;6828384;26;19924;-60
2024/04/17 15:16:47;;;;;;;;;;;;;;;;;;6829356;26;20122;-60
2024/04/17 15:19:52;;;;;;;;;;;;;;;;;;6826385;26;19929;-61
2024/04/17 15:22:58;;;;;;;;;;;;;;;;;;6826924;26;19924;-61
2024/04/17 15:26:05;;;;;;;;;;;;;;;;;;6783065;26;19932;-60
2024/04/17 15:29:08;;;;;;;;;;;;;;;;;;6782681;26;20122;-60
2024/04/17 15:32:13;;;;;;;;;;;;;;;;;;6782916;26;19925;-60
2024/04/17 15:35:21;;;;;;;;;;;;;;;;;;6782943;26;20129;-60
2024/04/17 15:38:25;;;;;;;;;;;;;;;;;;6750819;26;19925;-62
2024/04/17 15:41:30;;;;;;;;;;;;;;;;;;6782600;26;20267;-61
2024/04/17 15:44:33;;;;;;;;;;;;;;;;;;6782614;26;19932;-61
2024/04/17 15:47:38;;;;;;;;;;;;;;;;;;6783302;26;19932;-61
2024/04/17 15:50:47;;;;;;;;;;;;;;;;;;6782384;26;19931;-60
2024/04/17 15:53:52;;;;;;;;;;;;;;;;;;6749841;26;19932;-60
2024/04/17 15:56:57;;;;;;;;;;;;;;;;;;6782238;26;20171;-60
2024/04/17 16:00:00;;;;;;;;;;;;;;;;;;6781226;26;20029;-61
2024/04/17 16:03:15;;;;;;;;;;;;;;;;;;6781883;26;20068;-60
2024/04/17 16:06:20;;;;;;;;;;;;;;;;;;6782046;26;19955;-60
2024/04/17 16:09:28;;;;;;;;;;;;;;;;;;6781798;26;19925;-60
2024/04/17 16:12:31;;;;;;;;;;;;;;;;;;6827485;26;19931;-60
2024/04/17 16:15:36;;;;;;;;;;;;;;;;;;6827475;26;20113;-62
2024/04/17 16:18:39;;;;;;;;;;;;;;;;;;6827185;26;20125;-61
2024/04/17 16:21:48;;;;;;;;;;;;;;;;;;6827559;26;19935;-61
2024/04/17 16:24:50;;;;;;;;;;;;;;;;;;6796631;26;19936;-61
2024/04/17 16:27:56;;;;;;;;;;;;;;;;;;6749714;26;19928;-62
2024/04/17 16:31:06;;;;;;;;;;;;;;;;;;6781739;26;19974;-62
2024/04/17 16:34:11;;;;;;;;;;;;;;;;;;6782932;26;20098;-62
2024/04/17 16:37:16;;;;;;;;;;;;;;;;;;6780624;26;20022;-62
2024/04/17 16:40:22;;;;;;;;;;;;;;;;;;6781453;26;21157;-62
2024/04/17 16:43:24;;;;;;;;;;;;;;;;;;6780682;26;19928;-61
2024/04/17 16:46:30;;;;;;;;;;;;;;;;;;6781219;26;19948;-60
2024/04/17 16:49:32;;;;;;;;;;;;;;;;;;6780828;26;20153;-60
2024/04/17 16:52:40;;;;;;;;;;;;;;;;;;6781086;26;19929;-60
2024/04/17 16:55:47;;;;;;;;;;;;;;;;;;6780633;26;19932;-61
2024/04/17 16:58:50;;;;;;;;;;;;;;;;;;6781092;25;19924;-61
2024/04/17 17:01:56;;;;;;;;;;;;;;;;;;6781927;26;20121;-63
2024/04/17 17:04:59;;;;;;;;;;;;;;;;;;6781062;26;19935;-61
2024/04/17 17:08:07;;;;;;;;;;;;;;;;;;6781200;25;19928;-61
2024/04/17 17:11:10;;;;;;;;;;;;;;;;;;6779897;26;19924;-60
2024/04/17 17:14:16;;;;;;;;;;;;;;;;;;6781355;26;19924;-61
2024/04/17 17:17:18;;;;;;;;;;;;;;;;;;6782844;26;19926;-61
2024/04/17 17:20:24;;;;;;;;;;;;;;;;;;6782216;26;20107;-62
2024/04/17 17:23:29;;;;;;;;;;;;;;;;;;6781239;26;20010;-61
2024/04/17 17:26:34;;;;;;;;;;;;;;;;;;6781181;26;19960;-62
2024/04/17 17:29:37;;;;;;;;;;;;;;;;;;6780798;26;20106;-60
2024/04/17 17:32:42;;;;;;;;;;;;;;;;;;6789632;26;19931;-61
2024/04/17 17:35:51;;;;;;;;;;;;;;;;;;6824983;26;19931;-60
2024/04/17 17:38:59;;;;;;;;;;;;;;;;;;6826670;26;19923;-61
2024/04/17 17:42:20;;;;;;;;;;;;;;;;;;6781043;26;20345;-61
2024/04/17 17:45:22;;;;;;;;;;;;;;;;;;6819398;26;19924;-62
2024/04/17 17:48:28;;;;;;;;;;;;;;;;;;6825728;26;19931;-61
2024/04/17 17:51:30;;;;;;;;;;;;;;;;;;6794827;26;19924;-61
2024/04/17 17:54:38;;;;;;;;;;;;;;;;;;6795380;26;20106;-61
2024/04/17 17:57:41;;;;;;;;;;;;;;;;;;6825922;26;20163;-61
2024/04/17 18:00:51;;;;;;;;;;;;;;;;;;6786243;26;20120;-60
2024/04/17 18:03:55;;;;;;;;;;;;;;;;;;6820184;26;19931;-61
2024/04/17 18:07:01;;;;;;;;;;;;;;;;;;6779922;26;19924;-60
2024/04/17 18:10:10;;;;;;;;;;;;;;;;;;6813808;26;19931;-61
2024/04/17 18:13:12;;;;;;;;;;;;;;;;;;6823934;26;19928;-63
2024/04/17 18:16:18;;;;;;;;;;;;;;;;;;6825168;26;19931;-60
2024/04/17 18:19:38;;;;;;;;;;;;;;;;;;6824945;26;19928;-61
2024/04/17 18:22:40;;;;;;;;;;;;;;;;;;6826169;26;19924;-61
2024/04/17 18:25:48;;;;;;;;;;;;;;;;;;6766607;26;20015;-60
2024/04/17 18:28:54;;;;;;;;;;;;;;;;;;6768605;26;19925;-61
2024/04/17 18:31:59;;;;;;;;;;;;;;;;;;6784055;26;19932;-61
2024/04/17 18:35:02;;;;;;;;;;;;;;;;;;6752152;26;19925;-61
2024/04/17 18:38:07;;;;;;;;;;;;;;;;;;6784278;26;19924;-61
2024/04/17 18:41:18;;;;;;;;;;;;;;;;;;6786064;26;19936;-61
2024/04/17 18:44:20;;;;;;;;;;;;;;;;;;6783256;26;19924;-60
2024/04/17 18:47:26;;;;;;;;;;;;;;;;;;6783667;26;19924;-61
2024/04/17 18:50:33;;;;;;;;;;;;;;;;;;6782218;26;19934;-61
2024/04/17 18:53:38;;;;;;;;;;;;;;;;;;6784018;26;19925;-61
2024/04/17 18:56:44;;;;;;;;;;;;;;;;;;6784063;26;19964;-60
2024/04/17 18:59:49;;;;;;;;;;;;;;;;;;6783574;26;19928;-60
2024/04/17 19:02:54;;;;;;;;;;;;;;;;;;6783467;26;19925;-61
2024/04/17 19:05:59;;;;;;;;;;;;;;;;;;6784728;26;19931;-61
2024/04/17 19:09:03;;;;;;;;;;;;;;;;;;6783691;26;20018;-64
2024/04/17 19:12:12;;;;;;;;;;;;;;;;;;6825198;26;19924;-61
2024/04/17 19:15:18;;;;;;;;;;;;;;;;;;6828540;26;19928;-61
2024/04/17 19:18:22;;;;;;;;;;;;;;;;;;6828914;26;20022;-61
2024/04/17 19:21:28;;;;;;;;;;;;;;;;;;6829493;26;19931;-61
2024/04/17 19:24:31;;;;;;;;;;;;;;;;;;6803692;26;19924;-62
2024/04/17 19:27:39;;;;;;;;;;;;;;;;;;6784067;26;19924;-61
2024/04/17 19:30:44;;;;;;;;;;;;;;;;;;6784089;26;19924;-61
2024/04/17 19:33:51;;;;;;;;;;;;;;;;;;6782936;26;19932;-61
2024/04/17 19:36:57;;;;;;;;;;;;;;;;;;6784615;26;20125;-60
2024/04/17 19:40:03;;;;;;;;;;;;;;;;;;6783114;26;19931;-61
2024/04/17 19:43:09;;;;;;;;;;;;;;;;;;6783105;26;19932;-61
2024/04/17 19:46:15;;;;;;;;;;;;;;;;;;6782795;26;20077;-61
2024/04/17 19:49:17;;;;;;;;;;;;;;;;;;6782637;26;19924;-60
2024/04/17 19:52:22;;;;;;;;;;;;;;;;;;6783993;26;20035;-60
2024/04/17 19:55:28;;;;;;;;;;;;;;;;;;6782478;26;19925;-60
2024/04/17 19:58:36;;;;;;;;;;;;;;;;;;6782150;26;19959;-60
2024/04/17 20:01:38;;;;;;;;;;;;;;;;;;6782727;26;20149;-60
2024/04/17 20:04:44;;;;;;;;;;;;;;;;;;6781779;26;19924;-61
2024/04/17 20:07:47;;;;;;;;;;;;;;;;;;6782446;26;19931;-61
2024/04/17 20:10:52;;;;;;;;;;;;;;;;;;6802311;26;19924;-60
2024/04/17 20:14:00;;;;;;;;;;;;;;;;;;6826971;26;19924;-60
2024/04/17 20:17:04;;;;;;;;;;;;;;;;;;6795817;26;20113;-60
2024/04/17 20:20:11;;;;;;;;;;;;;;;;;;6827461;26;19924;-60
2024/04/17 20:23:27;;;;;;;;;;;;;;;;;;6818224;26;19924;-60
2024/04/17 20:26:32;;;;;;;;;;;;;;;;;;6781870;26;19925;-61
2024/04/17 20:29:37;;;;;;;;;;;;;;;;;;6781154;26;19924;-60
2024/04/17 20:32:43;;;;;;;;;;;;;;;;;;6781735;26;19924;-60
2024/04/17 20:35:48;;;;;;;;;;;;;;;;;;6781516;26;19932;-60
2024/04/17 20:38:54;;;;;;;;;;;;;;;;;;6781089;26;20159;-60
2024/04/17 20:41:56;;;;;;;;;;;;;;;;;;6781927;26;20092;-60
2024/04/17 20:45:04;;;;;;;;;;;;;;;;;;6781720;26;20012;-60
2024/04/17 20:48:09;;;;;;;;;;;;;;;;;;6704266;26;20115;-59
2024/04/17 20:51:15;;;;;;;;;;;;;;;;;;6782502;26;19931;-59
2024/04/17 20:54:17;;;;;;;;;;;;;;;;;;6781392;26;20230;-61
2024/04/17 20:57:23;;;;;;;;;;;;;;;;;;6782201;26;20190;-60
2024/04/17 21:00:29;;;;;;;;;;;;;;;;;;6780706;26;19928;-60
2024/04/17 21:03:34;;;;;;;;;;;;;;;;;;6749855;26;20023;-60